createdAt,value
2018-03-28T00:01:39.003Z,9.33
2018-03-28T00:04:06.011Z,8.73
2018-03-28T00:06:32.383Z,10.23
2018-03-28T00:08:58.759Z,12.30
2018-03-28T00:11:25.166Z,11.43
2018-03-28T00:13:51.528Z,10.93
2018-03-28T00:16:17.975Z,11.80
2018-03-28T00:18:45.078Z,11.77
2018-03-28T00:21:11.468Z,13.87
2018-03-28T00:23:38.570Z,12.83
2018-03-28T00:26:04.979Z,13.87
2018-03-28T00:28:31.322Z,13.73
2018-03-28T00:30:57.717Z,12.70
2018-03-28T00:33:24.858Z,13.30
2018-03-28T00:35:52.005Z,13.50
2018-03-28T00:38:18.406Z,14.20
2018-03-28T00:40:44.815Z,14.80
2018-03-28T00:43:11.311Z,11.87
2018-03-28T00:45:39.465Z,14.50
2018-03-28T00:48:05.825Z,12.83
2018-03-28T00:50:32.957Z,12.77
2018-03-28T00:53:00.091Z,12.33
2018-03-28T00:55:26.439Z,15.53
2018-03-28T00:57:52.824Z,13.50
2018-03-28T01:00:19.494Z,14.57
2018-03-28T01:02:45.935Z,13.30
2018-03-28T01:05:12.321Z,13.33
2018-03-28T01:07:38.695Z,14.97
2018-03-28T01:10:05.062Z,13.17
2018-03-28T01:12:31.495Z,15.60
2018-03-28T01:14:57.879Z,14.80
2018-03-28T01:17:24.252Z,13.13
2018-03-28T01:19:50.644Z,16.40
2018-03-28T01:22:17.049Z,14.37
2018-03-28T01:24:43.819Z,15.00
2018-03-28T01:27:10.220Z,12.13
2018-03-28T01:29:36.621Z,14.43
2018-03-28T01:32:02.987Z,13.10
2018-03-28T01:34:29.392Z,12.93
2018-03-28T01:36:56.081Z,14.27
2018-03-28T01:39:22.440Z,14.37
2018-03-28T01:41:49.562Z,13.77
2018-03-28T01:44:15.945Z,12.33
2018-03-28T01:46:42.437Z,12.50
2018-03-28T01:49:09.554Z,13.10
2018-03-28T01:51:35.986Z,13.53
2018-03-28T01:54:02.336Z,13.00
2018-03-28T01:56:28.725Z,14.17
2018-03-28T01:58:55.828Z,13.87
2018-03-28T02:01:22.221Z,12.63
2018-03-28T02:03:48.631Z,13.63
2018-03-28T02:06:15.763Z,13.90
2018-03-28T02:08:42.899Z,13.20
2018-03-28T02:11:09.328Z,12.17
2018-03-28T02:13:35.733Z,12.03
2018-03-28T02:16:02.127Z,12.13
2018-03-28T02:18:28.468Z,9.63
2018-03-28T02:20:54.903Z,12.17
2018-03-28T02:23:21.305Z,11.17
2018-03-28T02:25:48.387Z,11.63
2018-03-28T02:28:14.820Z,11.97
2018-03-28T02:30:41.165Z,11.50
2018-03-28T02:33:07.513Z,10.07
2018-03-28T02:35:33.912Z,10.10
2018-03-28T02:38:00.269Z,10.43
2018-03-28T02:40:26.638Z,9.73
2018-03-28T02:42:54.731Z,9.50
2018-03-28T02:45:21.104Z,9.90
2018-03-28T02:47:47.517Z,10.13
2018-03-28T02:50:13.867Z,9.13
2018-03-28T02:52:40.303Z,8.73
2018-03-28T02:55:06.747Z,9.03
2018-03-28T02:57:33.109Z,8.67
2018-03-28T03:00:00.181Z,8.20
2018-03-28T03:02:26.590Z,8.40
2018-03-28T03:04:53.706Z,8.27
2018-03-28T03:07:20.087Z,10.80
2018-03-28T03:09:46.441Z,9.77
2018-03-28T03:12:12.836Z,10.53
2018-03-28T03:14:39.931Z,8.73
2018-03-28T03:17:06.317Z,8.27
2018-03-28T03:19:32.648Z,9.87
2018-03-28T03:21:59.792Z,9.73
2018-03-28T03:24:26.904Z,9.73
2018-03-28T03:26:53.285Z,9.67
2018-03-28T03:29:19.629Z,11.90
2018-03-28T03:31:46.063Z,10.90
2018-03-28T03:34:12.453Z,11.37
2018-03-28T03:36:39.566Z,13.17
2018-03-28T03:39:05.944Z,11.33
2018-03-28T03:41:33.066Z,14.03
2018-03-28T03:43:59.400Z,11.93
2018-03-28T03:46:26.527Z,12.57
2018-03-28T03:48:52.881Z,12.30
2018-03-28T03:51:19.230Z,12.43
2018-03-28T03:53:46.460Z,13.10
2018-03-28T03:56:12.819Z,11.77
2018-03-28T03:58:39.886Z,11.83
2018-03-28T04:01:06.608Z,13.17
2018-03-28T04:03:33.744Z,11.23
2018-03-28T04:06:00.862Z,11.80
2018-03-28T04:08:27.209Z,12.40
2018-03-28T04:10:53.579Z,11.07
2018-03-28T04:13:19.934Z,10.40
2018-03-28T04:15:46.351Z,11.10
2018-03-28T04:18:13.043Z,10.47
2018-03-28T04:20:39.421Z,9.67
2018-03-28T04:23:05.776Z,9.80
2018-03-28T04:25:32.166Z,9.83
2018-03-28T04:27:58.561Z,8.23
2018-03-28T04:30:24.986Z,9.13
2018-03-28T04:32:51.349Z,9.60
2018-03-28T04:35:18.460Z,10.13
2018-03-28T04:37:44.909Z,9.70
2018-03-28T04:40:11.286Z,10.40
2018-03-28T04:42:37.679Z,9.17
2018-03-28T04:45:05.509Z,9.50
2018-03-28T04:47:31.889Z,10.53
2018-03-28T04:49:58.990Z,10.20
2018-03-28T04:52:25.450Z,11.13
2018-03-28T04:54:51.795Z,11.47
2018-03-28T04:57:18.231Z,9.43
2018-03-28T04:59:45.349Z,10.57
2018-03-28T05:02:12.358Z,10.73
2018-03-28T05:04:38.722Z,11.03
2018-03-28T05:07:05.079Z,12.70
2018-03-28T05:09:31.467Z,11.70
2018-03-28T05:11:57.850Z,14.37
2018-03-28T05:14:24.281Z,12.63
2018-03-28T05:16:50.616Z,13.60
2018-03-28T05:19:17.861Z,14.33
2018-03-28T05:21:44.969Z,14.50
2018-03-28T05:24:11.371Z,16.60
2018-03-28T05:26:37.753Z,15.67
2018-03-28T05:29:04.105Z,16.77
2018-03-28T05:31:30.515Z,16.13
2018-03-28T05:33:57.469Z,19.23
2018-03-28T05:36:23.847Z,18.73
2018-03-28T05:38:50.269Z,20.63
2018-03-28T05:41:16.634Z,18.27
2018-03-28T05:43:43.047Z,19.53
2018-03-28T05:46:09.414Z,21.63
2018-03-28T05:48:35.798Z,20.23
2018-03-28T05:51:02.154Z,21.73
2018-03-28T05:53:28.502Z,22.33
2018-03-28T05:55:54.945Z,25.27
2018-03-28T05:58:21.300Z,26.73
2018-03-28T06:00:47.681Z,27.77
2018-03-28T06:03:14.678Z,29.23
2018-03-28T06:05:41.761Z,29.13
2018-03-28T06:08:08.176Z,30.40
2018-03-28T06:10:34.528Z,27.77
2018-03-28T06:13:00.914Z,30.70
2018-03-28T06:15:27.247Z,30.00
2018-03-28T06:17:53.673Z,31.13
2018-03-28T06:20:20.161Z,34.03
2018-03-28T06:22:46.516Z,32.20
2018-03-28T06:25:12.897Z,29.87
2018-03-28T06:27:40.015Z,31.60
2018-03-28T06:30:06.392Z,33.90
2018-03-28T06:32:32.800Z,35.40
2018-03-28T06:34:59.892Z,34.87
2018-03-28T06:37:26.287Z,31.40
2018-03-28T06:39:53.403Z,33.23
2018-03-28T06:42:19.747Z,35.17
2018-03-28T06:44:46.095Z,32.93
2018-03-28T06:47:13.327Z,29.27
2018-03-28T06:49:39.662Z,32.10
2018-03-28T06:52:06.061Z,32.07
2018-03-28T06:54:32.422Z,31.20
2018-03-28T06:56:59.386Z,30.13
2018-03-28T06:59:26.530Z,33.40
2018-03-28T07:01:54.194Z,31.53
2018-03-28T07:04:21.385Z,32.03
2018-03-28T07:06:47.745Z,29.13
2018-03-28T07:09:14.275Z,30.70
2018-03-28T07:11:40.628Z,32.53
2018-03-28T07:14:07.740Z,32.33
2018-03-28T07:16:34.108Z,34.40
2018-03-28T07:19:00.554Z,32.03
2018-03-28T07:21:27.756Z,32.53
2018-03-28T07:23:54.165Z,32.03
2018-03-28T07:26:20.517Z,29.53
2018-03-28T07:28:46.926Z,33.37
2018-03-28T07:31:13.289Z,30.93
2018-03-28T07:33:39.690Z,30.77
2018-03-28T07:36:06.802Z,29.73
2018-03-28T07:38:33.920Z,33.70
2018-03-28T07:41:00.300Z,34.93
2018-03-28T07:43:27.456Z,33.10
2018-03-28T07:45:53.819Z,31.03
2018-03-28T07:48:20.151Z,30.23
2018-03-28T07:50:46.919Z,30.50
2018-03-28T07:53:13.267Z,31.23
2018-03-28T07:55:40.413Z,29.00
2018-03-28T07:58:07.560Z,31.43
2018-03-28T08:00:33.918Z,27.67
2018-03-28T08:03:00.280Z,28.47
2018-03-28T08:05:26.668Z,29.17
2018-03-28T08:07:53.764Z,29.33
2018-03-28T08:10:20.146Z,28.40
2018-03-28T08:12:47.239Z,29.67
2018-03-28T08:15:13.679Z,29.03
2018-03-28T08:17:40.050Z,34.43
2018-03-28T08:20:07.221Z,28.27
2018-03-28T08:22:34.289Z,32.53
2018-03-28T08:25:00.672Z,31.97
2018-03-28T08:27:27.073Z,29.50
2018-03-28T08:29:53.475Z,30.33
2018-03-28T08:32:19.873Z,32.43
2018-03-28T08:34:46.259Z,33.40
2018-03-28T08:37:12.705Z,30.67
2018-03-28T08:39:39.658Z,36.90
2018-03-28T08:42:06.118Z,31.43
2018-03-28T08:44:33.278Z,31.80
2018-03-28T08:47:00.390Z,31.10
2018-03-28T08:49:27.677Z,29.40
2018-03-28T08:51:54.850Z,31.97
2018-03-28T08:54:21.259Z,28.03
2018-03-28T08:56:49.260Z,30.53
2018-03-28T08:59:15.656Z,29.83
2018-03-28T09:01:43.696Z,28.77
2018-03-28T09:04:10.079Z,28.40
2018-03-28T09:06:36.442Z,26.03
2018-03-28T09:09:03.438Z,32.47
2018-03-28T09:11:30.561Z,27.37
2018-03-28T09:13:56.934Z,26.97
2018-03-28T09:16:23.413Z,24.87
2018-03-28T09:18:49.859Z,20.93
2018-03-28T09:21:16.257Z,23.23
2018-03-28T09:23:42.632Z,24.67
2018-03-28T09:26:09.016Z,28.93
2018-03-28T09:28:35.370Z,27.37
2018-03-28T09:31:01.789Z,27.03
2018-03-28T09:33:28.192Z,26.77
2018-03-28T09:35:54.596Z,26.20
2018-03-28T09:38:20.987Z,24.40
2018-03-28T09:40:47.380Z,25.33
2018-03-28T09:43:14.513Z,27.10
2018-03-28T09:45:40.870Z,29.13
2018-03-28T09:48:07.290Z,25.00
2018-03-28T09:50:33.681Z,26.10
2018-03-28T09:53:00.036Z,24.83
2018-03-28T09:55:26.384Z,22.77
2018-03-28T09:57:53.550Z,26.07
2018-03-28T10:00:25.977Z,22.17
2018-03-28T10:05:54.317Z,19.30
2018-03-28T10:08:20.710Z,18.30
2018-03-28T10:10:47.109Z,21.73
2018-03-28T10:13:13.447Z,20.27
2018-03-28T10:15:39.871Z,19.13
2018-03-28T10:18:06.983Z,17.53
2018-03-28T10:20:34.129Z,20.67
2018-03-28T10:23:01.251Z,18.37
2018-03-28T10:25:27.679Z,17.30
2018-03-28T10:27:54.777Z,18.60
2018-03-28T10:30:21.121Z,17.07
2018-03-28T10:32:47.532Z,16.30
2018-03-28T10:35:13.959Z,16.43
2018-03-28T10:37:41.094Z,14.80
2018-03-28T10:40:08.173Z,13.53
2018-03-28T10:42:34.545Z,13.57
2018-03-28T10:45:00.913Z,12.70
2018-03-28T10:47:28.069Z,12.50
2018-03-28T10:49:55.236Z,13.93
2018-03-28T10:52:21.624Z,13.50
2018-03-28T10:54:48.018Z,14.43
2018-03-28T10:57:14.402Z,16.20
2018-03-28T10:59:41.507Z,11.50
2018-03-28T11:02:07.858Z,14.07
2018-03-28T11:04:34.337Z,10.60
2018-03-28T11:07:01.426Z,12.90
2018-03-28T11:09:27.850Z,9.97
2018-03-28T11:11:54.261Z,8.83
2018-03-28T11:14:20.679Z,11.43
2018-03-28T11:16:47.118Z,8.83
2018-03-28T11:19:13.497Z,10.73
2018-03-28T11:21:41.386Z,8.63
2018-03-28T11:24:07.746Z,8.47
2018-03-28T11:26:34.121Z,9.10
2018-03-28T11:29:00.527Z,7.23
2018-03-28T11:31:27.275Z,7.20
2018-03-28T11:33:53.676Z,7.93
2018-03-28T11:36:20.076Z,6.67
2018-03-28T11:38:46.427Z,7.63
2018-03-28T11:41:13.556Z,7.90
2018-03-28T11:43:40.672Z,7.90
2018-03-28T11:46:07.080Z,8.40
2018-03-28T11:48:33.515Z,8.00
2018-03-28T11:50:59.932Z,8.53
2018-03-28T11:53:26.294Z,8.27
2018-03-28T11:55:52.645Z,9.40
2018-03-28T11:58:19.084Z,8.60
2018-03-28T12:00:45.450Z,9.07
2018-03-28T12:03:12.564Z,10.33
2018-03-28T12:05:38.962Z,9.40
2018-03-28T12:08:05.582Z,7.33
2018-03-28T12:10:31.997Z,7.53
2018-03-28T12:12:59.086Z,9.57
2018-03-28T12:15:25.455Z,8.67
2018-03-28T12:17:51.940Z,9.43
2018-03-28T12:20:18.308Z,9.17
2018-03-28T12:22:44.654Z,9.27
2018-03-28T12:25:11.022Z,11.27
2018-03-28T12:27:37.436Z,12.27
2018-03-28T12:30:04.568Z,9.67
2018-03-28T12:32:31.697Z,10.47
2018-03-28T12:34:58.145Z,12.80
2018-03-28T12:37:24.503Z,9.83
2018-03-28T12:39:51.622Z,9.70
2018-03-28T12:42:17.966Z,9.90
2018-03-28T12:44:45.104Z,10.27
2018-03-28T12:47:11.516Z,10.40
2018-03-28T12:49:38.019Z,10.90
2018-03-28T12:52:04.298Z,10.20
2018-03-28T12:54:30.691Z,10.87
2018-03-28T12:56:57.032Z,11.07
2018-03-28T12:59:23.389Z,9.63
2018-03-28T13:01:49.772Z,7.53
2018-03-28T13:04:16.099Z,8.80
2018-03-28T13:06:42.542Z,6.97
2018-03-28T13:09:08.935Z,9.17
2018-03-28T13:11:36.082Z,11.23
2018-03-28T13:14:03.323Z,9.77
2018-03-28T13:16:29.719Z,8.37
2018-03-28T13:18:56.124Z,10.07
2018-03-28T13:21:22.558Z,10.17
2018-03-28T13:23:48.991Z,12.80
2018-03-28T13:26:15.458Z,12.23
2018-03-28T13:28:41.857Z,12.73
2018-03-28T13:31:08.287Z,11.00
2018-03-28T13:33:34.707Z,14.73
2018-03-28T13:36:01.056Z,15.27
2018-03-28T13:38:27.428Z,13.93
2018-03-28T13:40:53.820Z,11.63
2018-03-28T13:43:20.267Z,13.53
2018-03-28T13:45:46.667Z,11.63
2018-03-28T13:48:13.007Z,12.87
2018-03-28T13:50:39.434Z,9.97
2018-03-28T13:53:07.313Z,9.20
2018-03-28T13:55:34.838Z,14.27
2018-03-28T13:58:02.029Z,11.67
2018-03-28T14:00:28.485Z,13.10
2018-03-28T14:02:54.965Z,12.77
2018-03-28T14:05:22.096Z,14.73
2018-03-28T14:07:48.576Z,16.37
2018-03-28T14:10:15.035Z,14.77
2018-03-28T14:12:41.486Z,15.43
2018-03-28T14:15:07.870Z,12.60
2018-03-28T14:17:34.335Z,17.63
2018-03-28T14:20:00.693Z,12.20
2018-03-28T14:22:27.060Z,13.83
2018-03-28T14:24:53.527Z,12.00
2018-03-28T14:27:19.987Z,15.83
2018-03-28T14:32:21.981Z,13.83
2018-03-28T14:34:49.151Z,13.50
2018-03-28T14:37:15.549Z,16.13
2018-03-28T14:39:41.964Z,12.63
2018-03-28T14:42:08.756Z,13.97
2018-03-28T14:44:35.315Z,16.07
2018-03-28T14:47:01.912Z,15.70
2018-03-28T14:49:29.007Z,14.60
2018-03-28T14:51:55.423Z,15.27
2018-03-28T14:54:21.892Z,14.83
2018-03-28T14:56:48.276Z,17.70
2018-03-28T14:59:14.657Z,12.13
2018-03-28T15:01:41.012Z,15.73
2018-03-28T15:04:07.393Z,11.77
2018-03-28T15:06:33.757Z,12.30
2018-03-28T15:09:00.216Z,10.27
2018-03-28T15:11:27.343Z,11.80
2018-03-28T15:13:53.764Z,11.17
2018-03-28T15:16:20.179Z,13.80
2018-03-28T15:18:46.643Z,14.97
2018-03-28T15:21:13.781Z,9.63
2018-03-28T15:23:40.246Z,13.20
2018-03-28T15:26:07.342Z,8.73
2018-03-28T15:28:33.774Z,15.30
2018-03-28T15:31:00.133Z,16.37
2018-03-28T15:33:26.515Z,11.20
2018-03-28T15:35:52.908Z,9.37
2018-03-28T15:38:19.327Z,13.07
2018-03-28T15:40:45.694Z,10.93
2018-03-28T15:43:12.857Z,11.23
2018-03-28T15:45:39.226Z,11.30
2018-03-28T15:48:05.617Z,11.97
2018-03-28T15:50:32.031Z,14.00
2018-03-28T15:55:31.616Z,16.23
2018-03-28T15:57:58.021Z,10.10
2018-03-28T16:00:24.400Z,10.40
2018-03-28T16:02:50.770Z,10.63
2018-03-28T16:05:17.141Z,12.63
2018-03-28T16:07:43.511Z,11.10
2018-03-28T16:10:10.733Z,11.40
2018-03-28T16:12:37.140Z,11.63
2018-03-28T16:15:03.593Z,12.57
2018-03-28T16:17:29.929Z,14.17
2018-03-28T16:19:56.384Z,10.83
2018-03-28T16:22:23.517Z,10.80
2018-03-28T16:24:49.902Z,8.27
2018-03-28T16:27:16.271Z,9.90
2018-03-28T16:29:42.656Z,10.40
2018-03-28T16:32:09.088Z,11.33
2018-03-28T16:34:40.275Z,10.07
2018-03-28T16:37:06.634Z,9.57
2018-03-28T16:39:33.814Z,10.80
2018-03-28T16:42:00.154Z,10.03
2018-03-28T16:44:26.562Z,12.97
2018-03-28T16:46:53.685Z,11.07
2018-03-28T16:49:20.025Z,10.20
2018-03-28T16:51:47.153Z,11.03
2018-03-28T16:54:13.573Z,10.10
2018-03-28T16:56:40.103Z,8.50
2018-03-28T16:59:06.537Z,9.53
2018-03-28T17:01:32.974Z,8.00
2018-03-28T17:03:59.353Z,9.43
2018-03-28T17:06:26.529Z,11.37
2018-03-28T17:08:52.934Z,9.03
2018-03-28T17:11:20.096Z,11.70
2018-03-28T17:13:46.464Z,9.00
2018-03-28T17:16:13.008Z,8.50
2018-03-28T17:18:39.463Z,9.77
2018-03-28T17:21:05.863Z,9.20
2018-03-28T17:23:32.262Z,9.20
2018-03-28T17:25:59.590Z,12.07
2018-03-28T17:28:26.720Z,8.70
2018-03-28T17:30:53.124Z,10.00
2018-03-28T17:33:19.513Z,9.57
2018-03-28T17:35:46.618Z,10.00
2018-03-28T17:38:13.097Z,10.60
2018-03-28T17:40:40.182Z,9.57
2018-03-28T17:43:06.585Z,8.97
2018-03-28T17:45:33.022Z,7.07
2018-03-28T17:47:59.420Z,8.83
2018-03-28T17:50:25.816Z,5.27
2018-03-28T17:52:52.257Z,5.97
2018-03-28T17:55:18.651Z,4.60
2018-03-28T17:57:45.088Z,3.90
2018-03-28T18:00:11.453Z,3.30
2018-03-28T18:02:38.599Z,3.53
2018-03-28T18:05:05.081Z,3.33
2018-03-28T18:07:32.196Z,3.47
2018-03-28T18:09:58.588Z,2.10
2018-03-28T18:12:25.634Z,3.47
2018-03-28T18:14:52.037Z,2.50
2018-03-28T18:17:19.158Z,3.20
2018-03-28T18:19:45.627Z,3.03
2018-03-28T18:22:12.779Z,3.83
2018-03-28T18:24:39.922Z,4.40
2018-03-28T18:27:07.003Z,4.23
2018-03-28T18:29:33.342Z,4.33
2018-03-28T18:31:59.744Z,4.17
2018-03-28T18:34:26.848Z,5.17
2018-03-28T18:36:53.191Z,3.57
2018-03-28T18:39:19.582Z,5.80
2018-03-28T18:41:45.970Z,4.40
2018-03-28T18:44:13.104Z,4.47
2018-03-28T18:46:39.536Z,4.70
2018-03-28T18:49:05.899Z,5.43
2018-03-28T18:51:33.116Z,5.03
2018-03-28T18:53:59.557Z,5.40
2018-03-28T18:56:25.974Z,4.43
2018-03-28T18:58:52.386Z,4.70
2018-03-28T19:01:18.791Z,5.00
2018-03-28T19:03:45.251Z,4.10
2018-03-28T19:06:11.627Z,3.57
2018-03-28T19:08:38.735Z,3.70
2018-03-28T19:11:05.199Z,3.70
2018-03-28T19:13:31.544Z,4.30
2018-03-28T19:15:58.672Z,5.07
2018-03-28T19:18:25.064Z,5.20
2018-03-28T19:20:51.479Z,5.00
2018-03-28T19:23:18.728Z,6.07
2018-03-28T19:25:45.253Z,5.90
2018-03-28T19:28:11.668Z,8.03
2018-03-28T19:30:38.861Z,5.90
2018-03-28T19:33:05.282Z,6.00
2018-03-28T19:35:31.700Z,6.10
2018-03-28T19:37:58.846Z,5.37
2018-03-28T19:40:25.364Z,6.70
2018-03-28T19:42:52.456Z,7.07
2018-03-28T19:45:18.916Z,7.73
2018-03-28T19:47:45.325Z,7.20
2018-03-28T19:50:11.712Z,8.27
2018-03-28T19:52:38.103Z,7.93
2018-03-28T19:55:04.492Z,7.70
2018-03-28T19:57:31.701Z,8.60
2018-03-28T19:59:58.115Z,7.97
2018-03-28T20:02:24.486Z,7.87
2018-03-28T20:04:50.881Z,8.43
2018-03-28T20:07:17.247Z,9.63
2018-03-28T20:09:43.718Z,7.87
2018-03-28T20:12:10.098Z,7.83
2018-03-28T20:14:36.438Z,8.30
2018-03-28T20:17:02.913Z,8.30
2018-03-28T20:19:29.412Z,8.67
2018-03-28T20:21:56.601Z,9.23
2018-03-28T20:24:23.040Z,8.63
2018-03-28T20:26:49.447Z,8.30
2018-03-28T20:29:16.606Z,9.60
2018-03-28T20:31:43.009Z,8.77
2018-03-28T20:34:09.405Z,8.23
2018-03-28T20:36:36.541Z,8.63
2018-03-28T20:39:02.985Z,8.10
2018-03-28T20:41:29.387Z,7.80
2018-03-28T20:43:56.499Z,7.90
2018-03-28T20:46:23.647Z,7.83
2018-03-28T20:48:50.028Z,9.23
2018-03-28T20:51:16.563Z,8.17
2018-03-28T20:53:42.968Z,8.23
2018-03-28T21:00:14.551Z,9.03
2018-03-28T21:05:06.728Z,8.83
2018-03-28T21:09:58.189Z,8.53
2018-03-28T21:14:49.609Z,7.90
2018-03-28T21:19:41.032Z,7.60
2018-03-28T21:24:32.441Z,9.33
2018-03-28T21:29:24.244Z,9.97
2018-03-28T21:34:16.401Z,9.20
2018-03-28T21:39:08.858Z,9.30
2018-03-28T21:44:00.964Z,8.50
2018-03-28T21:48:52.371Z,9.33
2018-03-28T21:53:43.792Z,9.03
2018-03-28T21:58:35.531Z,9.10
2018-03-28T22:03:28.979Z,9.13
2018-03-28T22:08:20.639Z,9.23
2018-03-28T22:13:12.058Z,9.43
2018-03-28T22:18:04.598Z,10.37
2018-03-28T22:22:57.430Z,9.63
2018-03-28T22:27:48.848Z,8.70
2018-03-28T22:32:40.288Z,8.77
2018-03-28T22:37:31.688Z,7.83
2018-03-28T22:42:23.082Z,7.07
2018-03-28T22:47:14.492Z,6.33
2018-03-28T22:52:05.865Z,6.93
2018-03-28T22:56:57.281Z,5.27
2018-03-28T23:01:48.731Z,6.17
2018-03-28T23:06:40.188Z,6.43
2018-03-28T23:11:31.627Z,5.30
2018-03-28T23:16:23.055Z,4.73
2018-03-28T23:21:14.474Z,5.37
2018-03-28T23:26:05.954Z,4.80
2018-03-28T23:30:57.323Z,4.93
2018-03-28T23:35:49.475Z,5.00
2018-03-28T23:40:41.652Z,5.73
2018-03-28T23:45:33.077Z,6.70
2018-03-28T23:50:24.501Z,6.73
2018-03-28T23:55:16.603Z,6.67
